Tiempo atmosférico en la estación meteorológica de Santervás de la Vega, Villapún, Palencia (985 m.)



Fecha
DESCASC
Temp. máxima en grados centígrados (hora)
DESCASC
Temp. mínima en grados centígrados (hora)
DESCASC
Temp. media en grados centígrados
DESCASC
Racha de viento máxima en m/sg (hora)
DESCASC
Velocidad máxima media en intervalos de 10 minutos(hora)
DESCASC
Precipitaciones diarias en mm
DESCASC
Precipitaciones de 00:00 a 06:00 en mm
DESCASC
Precipitaciones de 06:00 a 12:00 en mm
DESCASC
Precipitaciones de 12:00 a 18:00 en mm
DESCASC
Precipitaciones de 18:00 a 24:00 en mm
DESCASC
05-04-2020 13.5 (14:20) 5.6 (03:10) 9.5 10.28 (13:50) 5.83 (13:40) 10.4 0 0 0.4 10
04-04-2020 15.2 (16:20) 0.9 (01:40) 8 7.78 (15:40) 5 (16:40) 0 0 0 0 0
03-04-2020 12.1 (18:30) -1.7 (05:40) 5.2 5 (13:20) 3.06 (13:50) 0.2 0 0.2 0 0
02-04-2020 11.5 (17:00) 1.3 (00:00) 6.4 8.89 (15:50) 6.39 (15:40) 2.4 2.4 0 0 0
01-04-2020 10.7 (17:20) 4.2 (00:00) 7.4 8.89 (02:00) 5 (02:00) 4.8 1.2 0 0 3.6
31-03-2020 5.5 (14:50) -3 (-00:0) 1.3 13.89 (09:20) 9.44 (09:20) 0.6 0 0 0.4 0.2
30-03-2020 4.8 (17:20) -1.7 (-00:0) 1.6 13.33 (05:20) 9.17 (04:10) 0 0 0 0 0
29-03-2020 14.1 (15:30) 0.8 (00:00) 7.5 11.39 (19:30) 7.5 (19:30) 0 0 0 0 0
28-03-2020 13.9 (16:20) 0.7 (00:00) 7.3 5.28 (14:30) 3.33 (03:10) 0 0 0 0 0
27-03-2020 10.2 (16:40) -3.5 (-00:0) 3.3 12.22 (10:10) 7.78 (10:30) 0 0 0 0 0
26-03-2020 11.4 (16:50) -3 (-00:0) 4.2 7.78 (17:20) 5.28 (17:20) 0 0 0 0 0
25-03-2020 16.3 (16:20) 1.2 (00:00) 8.7 8.06 (17:30) 4.17 (17:40) 0 0 0 0 0
24-03-2020 14.3 (15:40) 3.7 (00:00) 9 10 (14:20) 6.39 (14:20) 0 0 0 0 0
23-03-2020 13.6 (15:50) 1.8 (00:00) 7.7 10 (20:40) 6.67 (20:40) 0 0 0 0 0
22-03-2020 14.7 (16:10) 3.7 (06:20) 9.2 10.56 (16:40) 7.22 (16:40) 0 0 0 0 0
21-03-2020 12.5 (17:00) 5.3 (00:00) 8.9 7.78 (12:30) 5 (12:30) 0 0 0 0 0
20-03-2020 12.2 (17:10) 5.2 (00:00) 8.7 7.78 (20:20) 5 (20:20) 0 0 0 0 0
19-03-2020 14.2 (13:00) 6 (00:00) 10.1 6.67 (14:00) 4.44 (14:00) 0 0 0 0 0
18-03-2020 16.3 (16:50) 5.1 (00:00) 10.7 5 (12:20) 3.33 (04:30) 0 0 0 0 0
17-03-2020 10.6 (16:50) 4.5 (00:00) 7.6 13.06 (03:30) 8.89 (03:40) 0 0 0 0 0
16-03-2020 10 (16:20) 0.3 (00:00) 5.2 13.61 (15:40) 9.72 (15:40) 7.8 0 5 2.8 0
15-03-2020 15.4 (14:40) 0.2 (00:00) 7.8 15 (17:30) 7.78 (17:20) 0 0 0 0 0
14-03-2020 14.4 (17:10) -2.4 (-00:0) 6 5 (13:30) 2.78 (13:30) 0 0 0 0 0
13-03-2020 11.2 (15:50) 2.4 (22:30) 6.8 10.56 (10:30) 6.67 (10:20) 0 0 0 0 0
12-03-2020 16.2 (15:20) 6 (00:00) 11.1 9.17 (18:40) 6.11 (18:40) 0 0 0 0 0
11-03-2020 18.7 (17:20) 2.5 (00:00) 10.6 6.67 (15:30) 4.72 (16:00) 0 0 0 0 0

Gráficas

Temp. máximas Temp. mínimas Temp. medias Precipitaciones Rachas de viento máximas Velocidades máximas media en intervalos de 10 minutos

Datos horarios

Fecha y hora oficial Temperatura (ºC) Velocidad del viento (km/h) Dirección del viento Racha (km/h) Dirección de racha Precipitación (mm) Presión (hPa) Tendencia (hPa) Humedad (%)
2020-04-09 23:00:00 11.5 9 Sudeste 12 Este 0.4 -- -- 98
2020-04-09 22:00:00 11.7 5 Este 8 Este 0.4 -- -- 95
2020-04-09 21:00:00 12.2 2 Oeste 8 Oeste 0.4 -- -- 92
2020-04-09 20:00:00 13.3 3 Sudoeste 14 Oeste 0 -- -- 89
2020-04-09 19:00:00 13.7 11 Oeste 23 Oeste 0 -- -- 83
2020-04-09 18:00:00 15.4 14 Oeste 23 Oeste 0 -- -- 69
2020-04-09 17:00:00 15.9 13 Oeste 22 Oeste 0 -- -- 71
2020-04-09 16:00:00 15.6 11 Sudoeste 18 Sur 0 -- -- 77
2020-04-09 15:00:00 14.8 10 Sur 17 Sur 0 -- -- 80
2020-04-09 14:00:00 14.8 10 Sur 17 Sudoeste 0 -- -- 80
2020-04-09 13:00:00 13.9 10 Sudeste 20 Sudeste 0 -- -- 87
2020-04-09 12:00:00 12.9 13 Sudeste 20 Sudeste 0 -- -- 85
2020-04-09 11:00:00 12 15 Sudeste 20 Sudeste 0 -- -- 88
2020-04-09 10:00:00 10.6 9 Este 12 Este 0 -- -- 93
2020-04-09 09:00:00 8.8 9 Este 12 Este 0 -- -- 98
2020-04-09 08:00:00 7.3 10 Este 13 Este 0 -- -- 98
2020-04-09 07:00:00 6.8 10 Este 13 Nordeste 0 -- -- 98
2020-04-09 06:00:00 7.4 11 Nordeste 14 Este 0 -- -- 96
2020-04-09 05:00:00 8.1 10 Nordeste 12 Nordeste 0 -- -- 93
2020-04-09 04:00:00 8.5 7 Este 13 Este 0 -- -- 94
2020-04-09 03:00:00 8.5 11 Nordeste 13 Nordeste 0 -- -- 91
2020-04-09 02:00:00 8.9 9 Nordeste 15 Nordeste 0 -- -- 90
2020-04-09 01:00:00 7.8 8 Nordeste 9 Nordeste 0 -- -- 94
2020-04-09 00:00:00 7.9 3 Este 4 Este 0 -- -- 93
2020-04-08 23:00:00 8.4 2 Este 3 Este 0 -- -- 89
2020-04-08 22:00:00 9.5 2 Oeste 5 Oeste 0 -- -- 87
2020-04-08 21:00:00 12.1 4 Oeste 10 Oeste 0 -- -- 79
2020-04-08 20:00:00 16.1 8 Oeste 19 Oeste 0 -- -- 64
2020-04-08 19:00:00 16.7 10 Oeste 24 Oeste 0 -- -- 60
2020-04-08 18:00:00 16.6 13 Oeste 23 Noroeste 0 -- -- 60
2020-04-08 17:00:00 16.8 12 Oeste 22 Oeste 0 -- -- 63
2020-04-08 16:00:00 15.8 11 Oeste 18 Noroeste 0.2 -- -- 73
2020-04-08 15:00:00 14.8 6 Noroeste 13 Norte 0 -- -- 80
2020-04-08 14:00:00 13.1 5 Este 11 Sudeste 0 -- -- 89
2020-04-08 13:00:00 11.5 4 Sudeste 10 Sudeste 0 -- -- 95
2020-04-08 12:00:00 11.1 6 Sudeste 11 Este 0 -- -- 96
2020-04-08 11:00:00 10.2 4 Sudeste 9 Este 0 -- -- 100
2020-04-08 10:00:00 9.3 7 Este 10 Este 0 -- -- 100
2020-04-08 09:00:00 8.7 5 Este 9 Este 0 -- -- 100
2020-04-08 08:00:00 8.3 6 Este 12 Este 0 -- -- 100
2020-04-08 07:00:00 8.7 9 Este 13 Este 0 -- -- 100
2020-04-08 06:00:00 8.8 8 Este 13 Este 0 -- -- 100
2020-04-08 05:00:00 8.7 6 Este 12 Este 0 -- -- 100
2020-04-08 04:00:00 8.6 8 Este 15 Este 0 -- -- 100
2020-04-08 03:00:00 8.5 9 Este 18 Este 0 -- -- 100
2020-04-08 02:00:00 7.9 6 Este 14 Sudeste 0 -- -- 99
2020-04-08 01:00:00 8.8 8 Sudeste 15 Sur 0 -- -- 98
2020-04-08 00:00:00 9.9 3 Sudeste 9 Nordeste 0 -- -- 94
2020-04-07 23:00:00 10.5 5 Este 8 Nordeste 0 -- -- 95
2020-04-07 22:00:00 10 3 Este 8 Norte 0 -- -- 94
2020-04-07 21:00:00 11.2 3 Este 28 Oeste 0.4 -- -- 92
2020-04-07 20:00:00 14.1 6 Oeste 25 Oeste 0 -- -- 76
2020-04-07 19:00:00 14.4 4 Noroeste 7 Noroeste 0 -- -- 75
2020-04-07 18:00:00 14.6 3 Noroeste 13 Oeste 0 -- -- 75
2020-04-07 17:00:00 14.4 6 Noroeste 17 Oeste 0 -- -- 74
2020-04-07 16:00:00 14.1 11 Oeste 18 Oeste 0 -- -- 74
2020-04-07 15:00:00 13.9 12 Oeste 19 Oeste 0 -- -- 74
2020-04-07 14:00:00 14.4 12 Oeste 18 Oeste 0 -- -- 73
2020-04-07 13:00:00 13.5 4 Sudoeste 19 Sudoeste 0 -- -- 77
2020-04-07 12:00:00 12.5 6 Sur 10 Sudoeste 0 -- -- 86
2020-04-07 11:00:00 10.8 4 Sudoeste 7 Sudoeste 0 -- -- 91
2020-04-07 10:00:00 9.1 0 Calma 5 Nordeste 0 -- -- 100
2020-04-07 09:00:00 8.4 0 Calma 8 Sur 0.2 -- -- 100
2020-04-07 08:00:00 8.1 0 Calma 4 Sudeste 0 -- -- 100
2020-04-07 07:00:00 8 0 Calma -- -- 0 -- -- 100
2020-04-07 06:00:00 8 0 Calma 5 Sur 0.6 -- -- 99
2020-04-07 05:00:00 8.2 3 Sur 5 Sudoeste 0 -- -- 99
2020-04-07 04:00:00 8.4 0 Calma 10 Sur 0 -- -- 99
2020-04-07 03:00:00 8.4 2 Sur 6 Sudoeste 0 -- -- 98
2020-04-07 02:00:00 8.5 0 Calma 6 Sudoeste 0 -- -- 98
2020-04-07 01:00:00 8.4 3 Sur 4 Sur 0.2 -- -- 97
2020-04-07 00:00:00 8.5 0 Calma 6 Noroeste 0 -- -- 95
2020-04-06 23:00:00 9 3 Noroeste 4 Noroeste 0.2 -- -- 96
2020-04-06 22:00:00 9.4 3 Oeste 14 Oeste 0 -- -- 93
2020-04-06 21:00:00 10.1 7 Oeste 15 Oeste 0 -- -- 89
2020-04-06 20:00:00 10.6 11 Oeste 28 Oeste 0 -- -- 84
2020-04-06 19:00:00 11.6 21 Oeste 36 Oeste 0 -- -- 80
2020-04-06 18:00:00 12.9 19 Oeste 33 Oeste 0 -- -- 69
2020-04-06 17:00:00 13.1 20 Oeste 37 Oeste 0 -- -- 73
2020-04-06 16:00:00 13.5 17 Oeste 29 Sudoeste 0 -- -- 73
2020-04-06 15:00:00 13 15 Oeste 31 Oeste 0 -- -- 76
2020-04-06 14:00:00 13 17 Oeste 30 Oeste 0 -- -- 82
2020-04-06 13:00:00 11.7 20 Oeste 35 Oeste 0 -- -- 86
2020-04-06 12:00:00 10.6 20 Oeste 37 Oeste 0 -- -- 95
2020-04-06 11:00:00 10.6 17 Oeste 24 Oeste 0.2 -- -- 100
2020-04-06 10:00:00 9.6 0 Calma 10 Este 1.4 -- -- 100
2020-04-06 09:00:00 9.1 5 Este 11 Este 0.4 -- -- 100
2020-04-06 08:00:00 8.9 7 Este 13 Este 0.2 -- -- 100
2020-04-06 07:00:00 8.9 7 Este 11 Este 1.4 -- -- 100
2020-04-06 06:00:00 8.9 6 Este 10 Este 4.6 -- -- 100
2020-04-06 05:00:00 8.9 5 Sudeste 7 Este 5.6 -- -- 100
2020-04-06 04:00:00 9 4 Este 6 Sudeste 1.4 -- -- 100
2020-04-06 03:00:00 8.8 0 Calma 8 Sudoeste 0 -- -- 98
2020-04-06 02:00:00 9.2 4 Oeste 13 Oeste 0 -- -- 98
2020-04-06 01:00:00 9.4 6 Oeste 17 Sudoeste 0 -- -- 99
2020-04-06 00:00:00 9 5 Sudoeste 8 Sudoeste 0.2 -- -- 98
2020-04-05 23:00:00 9.2 4 Sudoeste 17 Oeste 1 -- -- 97
2020-04-05 22:00:00 9.4 8 Oeste 19 Oeste 3.6 -- -- 98
2020-04-05 21:00:00 9.6 7 Oeste 20 Oeste 3.2 -- -- 97
2020-04-05 20:00:00 10.1 9 Oeste 28 Oeste 0.8 -- -- 95
2020-04-05 19:00:00 10.4 15 Oeste 27 Oeste 1.2 -- -- 95
2020-04-05 18:00:00 11.1 17 Oeste 28 Sudoeste 0.2 -- -- 89
2020-04-05 17:00:00 12 20 Oeste 34 Oeste 0.2 -- -- 84
2020-04-05 16:00:00 12.9 18 Oeste 33 Oeste 0 -- -- 76
2020-04-05 15:00:00 13 21 Oeste 34 Oeste 0 -- -- 69
2020-04-05 14:00:00 12.9 21 Oeste 37 Sudoeste 0 -- -- 66
2020-04-05 13:00:00 12.5 17 Oeste 27 Oeste 0 -- -- 69
2020-04-05 12:00:00 11.7 15 Oeste 29 Sudoeste 0 -- -- 70
2020-04-05 11:00:00 10.9 15 Sudoeste 24 Sudoeste 0 -- -- 73
2020-04-05 10:00:00 9.4 9 Sudoeste 19 Oeste 0 -- -- 81
2020-04-05 09:00:00 8.1 9 Sudoeste 15 Sudoeste 0 -- -- 84
2020-04-05 08:00:00 7.5 8 Sudoeste 14 Sudoeste 0 -- -- 85
2020-04-05 07:00:00 7.3 7 Sudoeste 12 Sudoeste 0 -- -- 85
2020-04-05 06:00:00 7.2 6 Sudoeste 10 Sudoeste 0 -- -- 84
2020-04-05 05:00:00 6.9 0 Calma 5 Sur 0 -- -- 82
2020-04-05 04:00:00 6.6 3 Sur 6 Sudeste 0 -- -- 81
2020-04-05 03:00:00 5.8 0 Calma 4 Nordeste 0 -- -- 81
2020-04-05 02:00:00 6.5 5 Oeste 14 Oeste 0 -- -- 77
2020-04-05 01:00:00 7.2 9 Oeste 16 Sudoeste 0 -- -- 74
2020-04-05 00:00:00 9.1 9 Sudoeste 23 Sudoeste 0 -- -- 65
2020-04-04 23:00:00 9.2 11 Sudoeste 18 Sudoeste 0 -- -- 68
2020-04-04 22:00:00 10.6 13 Sur 23 Sudoeste 0 -- -- 62
2020-04-04 21:00:00 12 12 Sudoeste 24 Sudoeste 0 -- -- 54
2020-04-04 20:00:00 13.4 11 Sudoeste 23 Sudoeste 0 -- -- 50
2020-04-04 19:00:00 14.7 11 Sur 24 Sur 0 -- -- 45
2020-04-04 18:00:00 14.3 14 Sudoeste 27 Sur 0 -- -- 47
2020-04-04 17:00:00 14.7 12 Sur 26 Sur 0 -- -- 43
2020-04-04 16:00:00 14.8 14 Sudoeste 28 Sudoeste 0 -- -- 35
2020-04-04 15:00:00 14.2 12 Sur 22 Sur 0 -- -- 49
2020-04-04 14:00:00 13.1 9 Sur 24 Sur 0 -- -- 49
2020-04-04 13:00:00 12.1 9 Sur 19 Sur 0 -- -- 53
2020-04-04 12:00:00 10.7 10 Sudeste 17 Sudeste 0 -- -- 62
2020-04-04 11:00:00 8.9 10 Sudeste 17 Sudeste 0 -- -- 67
2020-04-04 10:00:00 7 9 Sudeste 13 Sudeste 0 -- -- 70
2020-04-04 09:00:00 3.5 11 Nordeste 13 Nordeste 0 -- -- 86
2020-04-04 08:00:00 2.8 10 Nordeste 13 Nordeste 0 -- -- 87
2020-04-04 07:00:00 2.9 10 Nordeste 13 Nordeste 0 -- -- 86
2020-04-04 06:00:00 3 9 Nordeste 11 Nordeste 0 -- -- 87
2020-04-04 05:00:00 3 8 Nordeste 12 Nordeste 0 -- -- 88
2020-04-04 04:00:00 3.3 8 Nordeste 12 Norte 0 -- -- 87
2020-04-04 03:00:00 3 9 Nordeste 13 Nordeste 0 -- -- 89
2020-04-04 02:00:00 1.8 6 Nordeste 10 Nordeste 0 -- -- 96
2020-04-04 01:00:00 1.5 0 Calma -- -- 0 -- -- 93
2020-04-04 00:00:00 2.2 0 Calma 5 Oeste 0 -- -- 93
2020-04-03 23:00:00 2.5 4 Noroeste 7 Noroeste 0 -- -- 89
2020-04-03 22:00:00 3.8 5 Noroeste 5 Oeste 0 -- -- 85
2020-04-03 21:00:00 7.3 3 Oeste 9 Sudoeste 0 -- -- 71
2020-04-03 20:00:00 11 6 Sur 11 Sur 0 -- -- 55
2020-04-03 19:00:00 12 4 Sur 12 Sur 0 -- -- 49
2020-04-03 18:00:00 11.8 6 Sur 12 Sur 0 -- -- 53
2020-04-03 17:00:00 10.8 8 Sudeste 15 Sudeste 0 -- -- 52
2020-04-03 16:00:00 9.9 5 Este 14 Oeste 0 -- -- 63
2020-04-03 15:00:00 8.5 6 Oeste 15 Oeste 0 -- -- 69
2020-04-03 14:00:00 6.4 11 Oeste 18 Noroeste 0 -- -- 77
2020-04-03 13:00:00 5.4 7 Noroeste 16 Oeste 0 -- -- 83
2020-04-03 12:00:00 4.2 4 Noroeste 11 Noroeste 0 -- -- 87
2020-04-03 11:00:00 3 4 Nordeste 13 Noroeste 0 -- -- 93
2020-04-03 10:00:00 1.3 5 Norte 10 Norte 0.2 -- -- 95
2020-04-03 09:00:00 0.5 6 Nordeste 8 Nordeste 0 -- -- 96
2020-04-03 08:00:00 -0.7 4 Nordeste 9 Nordeste 0 -- -- 97
2020-04-03 07:00:00 -0.9 5 Nordeste 8 Nordeste 0 -- -- 98
2020-04-03 06:00:00 -1.6 0 Calma -- -- 0 -- -- 98
2020-04-03 05:00:00 -0.3 0 Calma -- -- 0 -- -- 99
2020-04-03 04:00:00 -1.4 0 Calma -- -- 0 -- -- 97
2020-04-03 03:00:00 -1.5 0 Calma -- -- 0 -- -- 96
2020-04-03 02:00:00 -0.6 0 Calma -- -- 0 -- -- 96
2020-04-03 01:00:00 -0.7 0 Calma -- -- 0 -- -- 94
2020-04-03 00:00:00 1.3 0 Calma -- -- 0 -- -- 92
2020-04-02 23:00:00 1.6 0 Calma 5 Nordeste 0 -- -- 90
2020-04-02 22:00:00 3.3 0 Calma 8 Este 0 -- -- 86
2020-04-02 21:00:00 5.9 5 Nordeste 21 Este 0 -- -- 77
2020-04-02 20:00:00 8.7 12 Este 23 Este 0 -- -- 64
2020-04-02 19:00:00 9.8 18 Este 28 Este 0 -- -- 61
2020-04-02 18:00:00 10.1 14 Este 30 Este 0 -- -- 58
2020-04-02 17:00:00 11.5 17 Este 30 Este 0 -- -- 57
2020-04-02 16:00:00 11.1 22 Este 32 Este 0 -- -- 57
2020-04-02 15:00:00 10.5 13 Sudeste 28 Sudeste 0 -- -- 72
2020-04-02 14:00:00 9.9 16 Sudeste 26 Este 0 -- -- 70
2020-04-02 13:00:00 9.3 12 Este 23 Este 0 -- -- 74
2020-04-02 12:00:00 8.3 16 Este 27 Este 0 -- -- 82
2020-04-02 11:00:00 7.8 16 Este 26 Este 0 -- -- 86
2020-04-02 10:00:00 6.7 13 Nordeste 22 Este 0 -- -- 91
2020-04-02 09:00:00 6.2 11 Este 18 Este 0 -- -- 94
2020-04-02 08:00:00 5.8 9 Este 12 Este 0 -- -- 96
2020-04-02 07:00:00 5.8 5 Este 16 Este 0 -- -- 97
2020-04-02 06:00:00 5.8 10 Este 19 Sudeste 0 -- -- 99
2020-04-02 05:00:00 5.6 6 Este 10 Este 0.2 -- -- 99
2020-04-02 04:00:00 5.4 4 Este 10 Este 0.4 -- -- 98
2020-04-02 03:00:00 5.3 5 Este 11 Este 1 -- -- 98
2020-04-02 02:00:00 5.4 8 Nordeste 10 Nordeste 0.6 -- -- 97
2020-04-02 01:00:00 5.1 4 Norte 9 Norte 0.2 -- -- 98
2020-04-02 00:00:00 4.8 5 Norte 13 Norte 0.2 -- -- 97
2020-04-01 23:00:00 4.9 5 Norte 12 Norte 2.8 -- -- 96
2020-04-01 22:00:00 5.6 3 Norte 15 Oeste 0 -- -- 95
2020-04-01 21:00:00 5.8 10 Oeste 23 Sudoeste 0.6 -- -- 94
2020-04-01 20:00:00 8.4 14 Sudoeste 27 Sur 0 -- -- 80
2020-04-01 19:00:00 9.8 11 Sudeste 16 Sudeste 0 -- -- 70
2020-04-01 18:00:00 10.2 10 Este 17 Sudeste 0 -- -- 65
2020-04-01 17:00:00 10.3 9 Este 20 Este 0 -- -- 70
2020-04-01 16:00:00 9.8 9 Este 16 Este 0 -- -- 73
2020-04-01 15:00:00 9.3 8 Este 18 Este 0 -- -- 77
2020-04-01 14:00:00 8.3 12 Este 19 Este 0 -- -- 87
2020-04-01 13:00:00 6.9 11 Este 18 Este 0 -- -- 91
2020-04-01 12:00:00 6.2 10 Sudeste 15 Sudeste 0 -- -- 93
2020-04-01 11:00:00 5.8 10 Sudeste 18 Sudeste 0 -- -- 95
2020-04-01 10:00:00 5.2 10 Sudeste 17 Sudeste 0 -- -- 98
2020-04-01 09:00:00 4.8 8 Sudeste 15 Sudeste 0 -- -- 99
2020-04-01 08:00:00 4.5 9 Sudeste 14 Este 0 -- -- 99
2020-04-01 07:00:00 4.5 8 Sudeste 16 Sudeste 0 -- -- 98
2020-04-01 06:00:00 4.4 11 Sudeste 23 Sudeste 0.2 -- -- 98
2020-04-01 05:00:00 4.5 14 Sudeste 27 Sudeste 0 -- -- 97
2020-04-01 04:00:00 4.7 15 Sudeste 26 Sudeste 0 -- -- 96
2020-04-01 03:00:00 4.3 14 Sudeste 28 Este 1 -- -- 97
2020-04-01 02:00:00 4.4 18 Este 32 Sudeste 0 -- -- 93
2020-04-01 01:00:00 4.2 15 Este 27 Este 0 -- -- 95
2020-04-01 00:00:00 4.2 16 Este 31 Este 0 -- -- 94
2020-03-31 23:00:00 4.1 17 Este 26 Este 0 -- -- 94
2020-03-31 22:00:00 4 17 Este 33 Este 0 -- -- 94
2020-03-31 21:00:00 4 21 Este 39 Este 0.2 -- -- 95
2020-03-31 20:00:00 4.3 22 Este 35 Este 0 -- -- 93
2020-03-31 19:00:00 4.3 23 Este 39 Este 0 -- -- 92
2020-03-31 18:00:00 4.2 26 Este 42 Este 0.4 -- -- 93
2020-03-31 17:00:00 3.8 32 Este 49 Este 0 -- -- 91
2020-03-31 16:00:00 4.5 30 Este 47 Este 0 -- -- 81
2020-03-31 15:00:00 5 32 Este 48 Sudeste 0 -- -- 79
2020-03-31 14:00:00 4.8 31 Este 47 Sudeste 0 -- -- 73
2020-03-31 13:00:00 3.9 31 Este 43 Este 0 -- -- 72
2020-03-31 12:00:00 2.9 27 Este 41 Este 0 -- -- 71
2020-03-31 11:00:00 2.7 26 Este 43 Este 0 -- -- 71
2020-03-31 10:00:00 0.6 28 Este 50 Este 0 -- -- 73
2020-03-31 09:00:00 -1.3 32 Este 45 Este 0 -- -- 80
2020-03-31 08:00:00 -1.4 22 Este 50 Este 0 -- -- 80
2020-03-31 07:00:00 -1.3 23 Este 41 Este 0 -- -- 77
2020-03-31 06:00:00 -1.5 24 Este 37 Este 0 -- -- 80
2020-03-31 05:00:00 -2.5 16 Este 26 Este 0 -- -- 86
2020-03-31 04:00:00 -2.7 14 Este 24 Este 0 -- -- 84
2020-03-31 03:00:00 -2.1 14 Este 30 Este 0 -- -- 81
2020-03-31 02:00:00 -1.4 15 Este 38 Este 0 -- -- 81
2020-03-31 01:00:00 -1.8 15 Este 25 Sudeste 0 -- -- 86
2020-03-31 00:00:00 -1.7 16 Sudeste 27 Sudeste 0 -- -- 86
2020-03-30 23:00:00 -1.6 17 Este 28 Este 0 -- -- 81
2020-03-30 22:00:00 -1.1 16 Este 29 Este 0 -- -- 74
2020-03-30 21:00:00 -0.2 22 Este 33 Este 0 -- -- 67
2020-03-30 20:00:00 1.5 21 Este 36 Este 0 -- -- 55
2020-03-30 19:00:00 3.2 21 Este 37 Este 0 -- -- 50
2020-03-30 18:00:00 3.9 23 Este 41 Este 0 -- -- 48
2020-03-30 17:00:00 4.6 20 Este 45 Este 0 -- -- 50
2020-03-30 16:00:00 4 27 Este 43 Este 0 -- -- 48
2020-03-30 15:00:00 3.7 26 Este 44 Este 0 -- -- 60
2020-03-30 14:00:00 3.9 23 Este 41 Este 0 -- -- 57
2020-03-30 13:00:00 2.8 24 Este 38 Este 0 -- -- 55
2020-03-30 12:00:00 2.6 18 Este 39 Este 0 -- -- 67
2020-03-30 11:00:00 1.6 27 Este 41 Este 0 -- -- 66
2020-03-30 10:00:00 0.4 18 Este 32 Este 0 -- -- 77
2020-03-30 09:00:00 0 16 Este 31 Este 0 -- -- 77
2020-03-30 08:00:00 0.3 21 Este 38 Este 0 -- -- 73
2020-03-30 07:00:00 0.6 21 Este 37 Este 0 -- -- 71
2020-03-30 06:00:00 0.7 27 Este 48 Este 0 -- -- 68
2020-03-30 05:00:00 1.6 32 Este 46 Este 0 -- -- 68
2020-03-30 04:00:00 2.5 28 Este 46 Este 0 -- -- 67
2020-03-30 03:00:00 2.8 23 Este 36 Este 0 -- -- 72
2020-03-30 02:00:00 3.1 19 Este 32 Este 0 -- -- 73
2020-03-30 01:00:00 3.4 16 Este 31 Este 0 -- -- 78
2020-03-30 00:00:00 4 17 Este 28 Este 0 -- -- 80
2020-03-29 23:00:00 3.9 18 Este 33 Este 0 -- -- 85
2020-03-29 22:00:00 5.3 20 Este 34 Este 0 -- -- 80
2020-03-29 21:00:00 6.4 18 Este 33 Este 0 -- -- 68
2020-03-29 20:00:00 7.4 17 Este 41 Este 0 -- -- 61
2020-03-29 19:00:00 9.6 23 Este 38 Este 0 -- -- 59
2020-03-29 18:00:00 11.5 23 Este 35 Este 0 -- -- 55
2020-03-29 17:00:00 11.9 14 Este 25 Este 0 -- -- 50
2020-03-29 16:00:00 13.1 17 Este 25 Este 0 -- -- 49
2020-03-29 15:00:00 13.8 9 Sudeste 18 Sudeste 0 -- -- 49
2020-03-29 14:00:00 12.5 10 Sudeste 16 Sudeste 0 -- -- 52
2020-03-29 13:00:00 11.7 6 Sudeste 13 Sudeste 0 -- -- 54
2020-03-29 12:00:00 9.9 4 Este 12 Este 0 -- -- 61
2020-03-29 11:00:00 7.5 6 Este 12 Este 0 -- -- 66
2020-03-29 10:00:00 4.7 9 Nordeste 12 Nordeste 0 -- -- 75
2020-03-29 09:00:00 2.1 8 Nordeste 10 Nordeste 0 -- -- 87
2020-03-29 08:00:00 0.8 9 Nordeste 10 Nordeste 0 -- -- 89
2020-03-29 07:00:00 1.4 8 Nordeste 11 Nordeste 0 -- -- 87
2020-03-29 06:00:00 2.2 10 Nordeste 14 Nordeste 0 -- -- 84
2020-03-29 05:00:00 2.7 11 Nordeste 13 Nordeste 0 -- -- 82
2020-03-29 03:00:00 3.6 13 Nordeste 14 Nordeste 0 -- -- 80
2020-03-29 01:00:00 4.5 13 Nordeste 14 Nordeste 0 -- -- 76
2020-03-29 00:00:00 5.6 9 Nordeste 11 Nordeste 0 -- -- 71
2020-03-28 23:00:00 6 9 Nordeste 10 Nordeste 0 -- -- 70
2020-03-28 22:00:00 6.4 7 Nordeste 13 Nordeste 0 -- -- 66
2020-03-28 21:00:00 4.8 5 Noroeste 8 Oeste 0 -- -- 66
2020-03-28 20:00:00 7.8 6 Oeste 9 Oeste 0 -- -- 56
2020-03-28 19:00:00 12 6 Sur 12 Sur 0 -- -- 42
2020-03-28 18:00:00 13.5 7 Sudoeste 18 Sur 0 -- -- 34
2020-03-28 17:00:00 13.8 7 Sudeste 18 Sur 0 -- -- 34
2020-03-28 16:00:00 13.7 9 Sur 18 Sudeste 0 -- -- 40
2020-03-28 15:00:00 13.4 8 Sur 19 Este 0 -- -- 39
2020-03-28 14:00:00 12.2 5 Este 18 Este 0 -- -- 40
2020-03-28 13:00:00 11.3 6 Sudeste 14 Este 0 -- -- 44
2020-03-28 12:00:00 10.2 7 Este 14 Sudeste 0 -- -- 46
2020-03-28 11:00:00 8.8 6 Sudeste 13 Sudeste 0 -- -- 54
2020-03-28 10:00:00 7 7 Sudeste 12 Este 0 -- -- 63
2020-03-28 09:00:00 4.8 5 Nordeste 9 Nordeste 0 -- -- 76
2020-03-28 08:00:00 1.9 8 Nordeste 10 Nordeste 0 -- -- 79
2020-03-28 07:00:00 0.8 10 Nordeste 11 Nordeste 0 -- -- 80
2020-03-28 06:00:00 1 10 Nordeste 12 Nordeste 0 -- -- 79
2020-03-28 05:00:00 1.4 10 Nordeste 13 Nordeste 0 -- -- 76
2020-03-28 04:00:00 1.5 12 Nordeste 14 Nordeste 0 -- -- 75
2020-03-28 03:00:00 2.5 11 Nordeste 14 Nordeste 0 -- -- 74
2020-03-28 02:00:00 2.8 10 Nordeste 14 Nordeste 0 -- -- 77
2020-03-28 01:00:00 2.2 9 Nordeste 14 Nordeste 0 -- -- 82
2020-03-28 00:00:00 1.8 12 Nordeste 14 Nordeste 0 -- -- 83
2020-03-27 23:00:00 2.1 8 Nordeste 14 Nordeste 0 -- -- 83
2020-03-27 22:00:00 3.2 10 Nordeste 15 Nordeste 0 -- -- 74
2020-03-27 21:00:00 2.8 0 Calma -- -- 0 -- -- 65
2020-03-27 20:00:00 5.3 0 Calma 10 Sur 0 -- -- 59
2020-03-27 19:00:00 8.5 8 Sur 23 Sudeste 0 -- -- 50
2020-03-27 18:00:00 9.8 12 Sudeste 26 Sudeste 0 -- -- 44
2020-03-27 17:00:00 10.1 17 Sudeste 41 Este 0 -- -- 37
2020-03-27 16:00:00 9.7 17 Sudeste 34 Sudeste 0 -- -- 40
2020-03-27 15:00:00 9.6 19 Sudeste 29 Sudeste 0 -- -- 41
2020-03-27 14:00:00 8.4 18 Este 32 Sudeste 0 -- -- 45
2020-03-27 13:00:00 7.6 19 Este 34 Sudeste 0 -- -- 50
2020-03-27 12:00:00 6.4 18 Este 35 Sudeste 0 -- -- 54
2020-03-27 11:00:00 4.6 22 Este 44 Sudeste 0 -- -- 64
2020-03-27 10:00:00 2.8 28 Este 42 Este 0 -- -- 66
2020-03-27 09:00:00 1.4 17 Este 28 Este 0 -- -- 69
2020-03-27 08:00:00 -1.8 6 Nordeste 12 Este 0 -- -- 85
2020-03-27 07:00:00 -3.5 8 Este 11 Nordeste 0 -- -- 91
2020-03-27 06:00:00 -2.2 7 Este 16 Este 0 -- -- 89
2020-03-27 05:00:00 -2.4 6 Este 15 Nordeste 0 -- -- 87
2020-03-27 04:00:00 -1.7 9 Este 17 Sudeste 0 -- -- 85
2020-03-27 03:00:00 -1.6 7 Sudeste 15 Sudeste 0 -- -- 89
2020-03-27 02:00:00 -2.4 0 Calma 5 Nordeste 0 -- -- 84
2020-03-27 01:00:00 -2 0 Calma -- -- 0 -- -- 84
2020-03-27 00:00:00 -0.2 0 Calma 8 Este 0 -- -- 81
2020-03-26 23:00:00 1.8 6 Este 13 Este 0 -- -- 75
2020-03-26 22:00:00 2.6 3 Norte 19 Norte 0 -- -- 65
2020-03-26 21:00:00 3.6 8 Norte 19 Norte 0 -- -- 62
2020-03-26 20:00:00 5.4 7 Noroeste 15 Noroeste 0 -- -- 62
2020-03-26 19:00:00 7.5 10 Sur 18 Sudeste 0 -- -- 60
2020-03-26 18:00:00 9.7 10 Sudeste 28 Sudeste 0 -- -- 52
2020-03-26 17:00:00 11.3 12 Sur 21 Sur 0 -- -- 45
2020-03-26 16:00:00 11.1 12 Sur 25 Sudoeste 0 -- -- 44
2020-03-26 15:00:00 10.8 9 Sur 18 Sur 0 -- -- 46
2020-03-26 14:00:00 9.6 8 Sudeste 21 Sudeste 0 -- -- 43
2020-03-26 13:00:00 8.9 8 Sudeste 17 Sudeste 0 -- -- 48
2020-03-26 12:00:00 7.8 5 Oeste 18 Oeste 0 -- -- 48
2020-03-26 11:00:00 6.3 6 Sudoeste 18 Sudoeste 0 -- -- 52
2020-03-26 10:00:00 4.4 8 Sudoeste 14 Oeste 0 -- -- 58
2020-03-26 09:00:00 1.4 3 Oeste 7 Oeste 0 -- -- 83
2020-03-26 08:00:00 -1.8 0 Calma 4 Nordeste 0 -- -- 89
2020-03-26 07:00:00 -2.3 3 Nordeste 6 Nordeste 0 -- -- 91
2020-03-26 06:00:00 -2.2 5 Nordeste 8 Nordeste 0 -- -- 88
2020-03-26 05:00:00 -1.3 5 Este 9 Este 0 -- -- 86
2020-03-26 04:00:00 -0.7 0 Calma -- -- 0 -- -- 87
2020-03-26 03:00:00 0.2 0 Calma 12 Sur 0 -- -- 75
2020-03-26 02:00:00 1.2 5 Sur 13 Sudeste 0 -- -- 66
2020-03-26 01:00:00 2.3 0 Calma 16 Nordeste 0 -- -- 46
2020-03-26 00:00:00 5.4 12 Norte 24 Norte 0 -- -- 35
2020-03-25 23:00:00 5.6 2 Nordeste 21 Noroeste 0 -- -- 39
2020-03-25 22:00:00 6.7 6 Nordeste 14 Norte 0 -- -- 35
2020-03-25 21:00:00 8.1 6 Noroeste 20 Norte 0 -- -- 28
2020-03-25 20:00:00 9.9 7 Norte 21 Noroeste 0 -- -- 25
2020-03-25 19:00:00 13.2 7 Norte 24 Norte 0 -- -- 21
2020-03-25 18:00:00 15 12 Norte 29 Noroeste 0 -- -- 23
2020-03-25 17:00:00 15.7 7 Sudeste 17 Sur 0 -- -- 41
2020-03-25 16:00:00 15.9 3 Sudeste 13 Sudeste 0 -- -- 40
2020-03-25 15:00:00 14.9 4 Sudeste 22 Sur 0 -- -- 42
2020-03-25 14:00:00 14.2 12 Sudeste 22 Sudeste 0 -- -- 53
2020-03-25 13:00:00 13.6 9 Sudeste 19 Sudeste 0 -- -- 59
2020-03-25 12:00:00 13.3 8 Nordeste 26 Oeste 0 -- -- 53
2020-03-25 11:00:00 11.9 6 Noroeste 21 Oeste 0 -- -- 64
2020-03-25 10:00:00 10.7 9 Noroeste 18 Noroeste 0 -- -- 70
2020-03-25 09:00:00 7.8 5 Noroeste 12 Noroeste 0 -- -- 84
2020-03-25 08:00:00 2.8 5 Noroeste 10 Noroeste 0 -- -- 92
2020-03-25 07:00:00 3.8 7 Noroeste 11 Noroeste 0 -- -- 91
2020-03-25 06:00:00 2.2 0 Calma -- -- 0 -- -- 98
2020-03-25 05:00:00 2.6 0 Calma 10 Norte 0 -- -- 90
2020-03-25 04:00:00 5.2 6 Nordeste 10 Nordeste 0 -- -- 88
2020-03-25 03:00:00 5.6 7 Nordeste 10 Nordeste 0 -- -- 89
2020-03-25 02:00:00 5.7 8 Nordeste 12 Norte 0 -- -- 89
2020-03-25 01:00:00 6 10 Nordeste 14 Norte 0 -- -- 87
2020-03-25 00:00:00 6.3 8 Norte 11 Nordeste 0 -- -- 83
2020-03-24 23:00:00 6.1 8 Nordeste 12 Nordeste 0 -- -- 83
2020-03-24 22:00:00 6.7 9 Nordeste 13 Este 0 -- -- 79
2020-03-24 21:00:00 7.7 5 Sudeste 12 Sudeste 0 -- -- 76
2020-03-24 20:00:00 9.2 10 Sudeste 23 Sudeste 0 -- -- 73
2020-03-24 19:00:00 11.6 16 Sudeste 28 Sudeste 0 -- -- 64
2020-03-24 18:00:00 13.4 20 Sudeste 32 Este 0 -- -- 57
2020-03-24 17:00:00 14 19 Sudeste 30 Este 0 -- -- 55
2020-03-24 16:00:00 14.1 21 Este 33 Sudeste 0 -- -- 53
2020-03-24 15:00:00 13.7 21 Este 36 Este 0 -- -- 54
2020-03-24 14:00:00 12.5 14 Este 30 Sudeste 0 -- -- 57
2020-03-24 13:00:00 12.2 18 Este 28 Este 0 -- -- 60
2020-03-24 12:00:00 11.6 14 Este 26 Este 0 -- -- 70
2020-03-24 11:00:00 9.1 13 Este 24 Este 0 -- -- 82
2020-03-24 10:00:00 8.9 18 Este 27 Este 0 -- -- 84
2020-03-24 09:00:00 7.3 13 Este 19 Este 0 -- -- 90
2020-03-24 08:00:00 5.1 12 Nordeste 17 Este 0 -- -- 98
2020-03-24 07:00:00 4.3 12 Este 16 Nordeste 0 -- -- 97
2020-03-24 06:00:00 4.4 9 Nordeste 15 Nordeste 0 -- -- 97
2020-03-24 05:00:00 4 11 Nordeste 15 Nordeste 0 -- -- 98
2020-03-24 04:00:00 4.4 13 Nordeste 18 Este 0 -- -- 97
2020-03-24 03:00:00 5.3 12 Este 17 Nordeste 0 -- -- 96
2020-03-24 02:00:00 5.3 9 Este 15 Este 0 -- -- 94
2020-03-24 01:00:00 6.2 9 Este 24 Este 0 -- -- 92
2020-03-24 00:00:00 7.4 17 Este 25 Este 0 -- -- 87
2020-03-23 23:00:00 6.6 9 Este 20 Este 0 -- -- 89
2020-03-23 22:00:00 8.2 13 Este 35 Sudeste 0 -- -- 83
2020-03-23 21:00:00 10 22 Sudeste 36 Sudeste 0 -- -- 75
2020-03-23 20:00:00 10.6 15 Sudeste 29 Sudeste 0 -- -- 68
2020-03-23 19:00:00 11.6 16 Sudeste 27 Sudeste 0 -- -- 67
2020-03-23 18:00:00 12.3 12 Sudeste 27 Este 0 -- -- 61
2020-03-23 17:00:00 12.4 20 Sudeste 29 Sudeste 0 -- -- 56
2020-03-23 16:00:00 13.5 15 Sudeste 26 Sur 0 -- -- 52
2020-03-23 15:00:00 12.1 15 Sudeste 26 Sudeste 0 -- -- 63
2020-03-23 14:00:00 12.2 15 Sudeste 30 Sudeste 0 -- -- 61
2020-03-23 13:00:00 11.5 14 Sudeste 26 Sudeste 0 -- -- 66
2020-03-23 12:00:00 11.2 13 Sudeste 21 Sudeste 0 -- -- 69
2020-03-23 11:00:00 9.4 13 Este 25 Este 0 -- -- 71
2020-03-23 10:00:00 8.1 16 Este 25 Sudeste 0 -- -- 81
2020-03-23 09:00:00 6.3 13 Este 22 Este 0 -- -- 86
2020-03-23 08:00:00 2.4 2 Nordeste 9 Nordeste 0 -- -- 94
2020-03-23 07:00:00 2.2 4 Nordeste 13 Nordeste 0 -- -- 94
2020-03-23 06:00:00 2.3 6 Nordeste 11 Nordeste 0 -- -- 92
2020-03-23 05:00:00 2.4 0 Calma 13 Nordeste 0 -- -- 92
2020-03-23 04:00:00 3 10 Este 17 Este 0 -- -- 92
2020-03-23 03:00:00 4.2 13 Este 21 Este 0 -- -- 91
2020-03-23 02:00:00 4.5 14 Este 28 Este 0 -- -- 88
2020-03-23 01:00:00 5 10 Este 19 Este 0 -- -- 87
2020-03-23 00:00:00 5.1 12 Nordeste 22 Este 0 -- -- 86
2020-03-22 23:00:00 6 14 Este 21 Este 0 -- -- 82
2020-03-22 22:00:00 6.2 9 Este 21 Este 0 -- -- 81
2020-03-22 21:00:00 7.9 13 Este 26 Este 0 -- -- 74
2020-03-22 20:00:00 9.2 17 Este 28 Este 0 -- -- 66
2020-03-22 19:00:00 11.6 20 Este 34 Sudeste 0 -- -- 54
2020-03-22 18:00:00 13.3 25 Este 36 Este 0 -- -- 48
2020-03-22 17:00:00 14.4 22 Este 38 Este 0 -- -- 41
2020-03-22 16:00:00 14.6 21 Este 33 Sudeste 0 -- -- 42
2020-03-22 15:00:00 14 24 Este 35 Sudeste 0 -- -- 48
2020-03-22 14:00:00 13.7 15 Este 29 Este 0 -- -- 53
2020-03-22 13:00:00 13 17 Este 27 Sudeste 0 -- -- 58
2020-03-22 12:00:00 12.4 15 Sudeste 27 Sudeste 0 -- -- 68
2020-03-22 11:00:00 11 14 Sudeste 22 Sudeste 0 -- -- 76
2020-03-22 10:00:00 8.8 13 Sudeste 20 Sudeste 0 -- -- 88
2020-03-22 09:00:00 6.5 5 Nordeste 7 Nordeste 0 -- -- 99
2020-03-22 08:00:00 5.6 5 Este 11 Nordeste 0 -- -- 100
2020-03-22 07:00:00 4.1 10 Nordeste 13 Nordeste 0 -- -- 98
2020-03-22 06:00:00 4.4 0 Calma -- -- 0 -- -- 96
2020-03-22 05:00:00 5.6 0 Calma -- -- 0 -- -- 98
2020-03-22 04:00:00 6.5 0 Calma 6 Norte 0 -- -- 98
2020-03-22 03:00:00 6.6 3 Noroeste 6 Noroeste 0 -- -- 97
2020-03-22 02:00:00 5.9 0 Calma -- -- 0 -- -- 97
2020-03-22 01:00:00 4.9 0 Calma -- -- 0 -- -- 96
2020-03-22 00:00:00 5.3 0 Calma -- -- 0 -- -- 93
2020-03-21 23:00:00 6 0 Calma -- -- 0 -- -- 93
2020-03-21 22:00:00 7.9 3 Sudeste 18 Sudeste 0 -- -- 91
2020-03-21 21:00:00 8.7 7 Este 9 Este 0 -- -- 85
2020-03-21 20:00:00 9 6 Este 11 Este 0 -- -- 80
2020-03-21 19:00:00 11.3 9 Este 14 Sudeste 0 -- -- 69
2020-03-21 18:00:00 11.8 9 Sudeste 18 Sudeste 0 -- -- 67
2020-03-21 17:00:00 12.5 9 Sudeste 19 Sudeste 0 -- -- 65
2020-03-21 16:00:00 11.4 8 Sudeste 15 Sudeste 0 -- -- 72
2020-03-21 15:00:00 10.7 8 Sudeste 15 Sudeste 0 -- -- 75
2020-03-21 14:00:00 10.5 11 Sudeste 24 Sur 0 -- -- 80
2020-03-21 13:00:00 11.3 15 Sur 28 Sur 0 -- -- 78
2020-03-21 12:00:00 9.8 17 Sur 25 Sudeste 0 -- -- 80
2020-03-21 11:00:00 9.7 14 Sudeste 26 Sudeste 0 -- -- 78
2020-03-21 10:00:00 8.4 15 Sudeste 23 Sudeste 0 -- -- 85
2020-03-21 09:00:00 7.5 13 Este 18 Sudeste 0 -- -- 89
2020-03-21 08:00:00 6.3 9 Este 13 Este 0 -- -- 94
2020-03-21 07:00:00 6.6 9 Este 19 Sudeste 0 -- -- 93
2020-03-21 06:00:00 7 12 Sudeste 23 Sudeste 0 -- -- 92
2020-03-21 05:00:00 6.8 10 Este 19 Este 0 -- -- 93
2020-03-21 04:00:00 5.4 10 Este 17 Este 0 -- -- 95
2020-03-21 03:00:00 5.6 9 Este 16 Este 0 -- -- 96
2020-03-21 02:00:00 6.1 10 Este 15 Este 0 -- -- 95
2020-03-21 01:00:00 6.5 6 Este 9 Este 0 -- -- 95
2020-03-21 00:00:00 7.8 4 Este 11 Este 0 -- -- 96
2020-03-20 23:00:00 8.2 3 Sudeste 11 Sudeste 0 -- -- 95
2020-03-20 22:00:00 8.8 9 Sudeste 13 Sudeste 0 -- -- 96
2020-03-20 21:00:00 9.4 9 Sur 28 Sur 0 -- -- 89
2020-03-20 20:00:00 10.2 5 Sudeste 11 Este 0 -- -- 82
2020-03-20 19:00:00 11.2 6 Sudeste 9 Sur 0 -- -- 77
2020-03-20 18:00:00 12.1 8 Sur 12 Sur 0 -- -- 72
2020-03-20 17:00:00 12.1 6 Sudeste 14 Sudeste 0 -- -- 69
2020-03-20 16:00:00 12.1 8 Sudeste 17 Sudeste 0 -- -- 73
2020-03-20 15:00:00 11.6 6 Sudeste 19 Sur 0 -- -- 73
2020-03-20 14:00:00 10.8 13 Sur 20 Sudeste 0 -- -- 78
2020-03-20 13:00:00 10.3 13 Sudeste 21 Sudeste 0 -- -- 81
2020-03-20 12:00:00 9.1 16 Sudeste 22 Sudeste 0 -- -- 84
2020-03-20 11:00:00 8.2 15 Sudeste 22 Sudeste 0 -- -- 86
2020-03-20 10:00:00 7.6 12 Sudeste 19 Sudeste 0 -- -- 90
2020-03-20 09:00:00 6.5 9 Este 13 Este 0 -- -- 94
2020-03-20 08:00:00 5.2 8 Este 11 Este 0 -- -- 95
2020-03-20 07:00:00 5.6 7 Nordeste 10 Este 0 -- -- 93
2020-03-20 06:00:00 5.3 7 Este 10 Este 0 -- -- 93
2020-03-20 05:00:00 5.6 8 Este 10 Este 0 -- -- 92
2020-03-20 04:00:00 5.3 7 Este 10 Este 0 -- -- 92
2020-03-20 03:00:00 6.5 9 Este 15 Este 0 -- -- 84
2020-03-20 02:00:00 6.7 6 Este 15 Sudeste 0 -- -- 86
2020-03-20 01:00:00 6.6 10 Este 14 Este 0 -- -- 91
2020-03-20 00:00:00 7.2 7 Este 9 Este 0 -- -- 89
2020-03-19 23:00:00 7.3 6 Nordeste 8 Nordeste 0 -- -- 81
2020-03-19 22:00:00 7 3 Este 8 Este 0 -- -- 71
2020-03-19 21:00:00 8.3 0 Calma 10 Sudeste 0 -- -- 65
2020-03-19 20:00:00 10.8 7 Sudeste 10 Sudeste 0 -- -- 56
2020-03-19 19:00:00 12.1 6 Sudeste 12 Este 0 -- -- 53
2020-03-19 18:00:00 13.1 9 Sudeste 18 Sudeste 0 -- -- 51
2020-03-19 17:00:00 13.7 12 Sudeste 22 Sudeste 0 -- -- 48
2020-03-19 16:00:00 14.1 13 Sudeste 19 Sudeste 0 -- -- 51
2020-03-19 15:00:00 14.1 13 Sudeste 22 Sur 0 -- -- 49
2020-03-19 14:00:00 13.8 16 Sudeste 24 Sudeste 0 -- -- 49
2020-03-19 13:00:00 14.2 12 Sudeste 20 Sur 0 -- -- 52
2020-03-19 12:00:00 13.2 13 Sudeste 21 Sudeste 0 -- -- 56
2020-03-19 11:00:00 12.1 13 Sudeste 19 Sudeste 0 -- -- 59
2020-03-19 10:00:00 11 10 Sudeste 16 Sudeste 0 -- -- 72
2020-03-19 09:00:00 8.8 6 Este 12 Este 0 -- -- 88
2020-03-19 08:00:00 6.1 9 Nordeste 13 Nordeste 0 -- -- 93
2020-03-19 07:00:00 6.3 10 Nordeste 13 Nordeste 0 -- -- 91
2020-03-19 06:00:00 6.4 9 Nordeste 12 Este 0 -- -- 93
2020-03-19 05:00:00 6.7 8 Este 11 Este 0 -- -- 91
2020-03-19 04:00:00 7 8 Este 10 Este 0 -- -- 91
2020-03-19 03:00:00 7.1 9 Nordeste 13 Este 0 -- -- 91
2020-03-19 02:00:00 8 12 Nordeste 13 Nordeste 0 -- -- 90
2020-03-19 01:00:00 7.8 11 Este 13 Este 0 -- -- 92
2020-03-19 00:00:00 9.2 6 Este 9 Este 0 -- -- 86
2020-03-18 23:00:00 9.1 0 Calma 7 Este 0 -- -- 87
2020-03-18 22:00:00 10 6 Este 10 Sudeste 0 -- -- 83
2020-03-18 21:00:00 9.4 4 Nordeste 6 Nordeste 0 -- -- 86
2020-03-18 20:00:00 10.5 0 Calma 4 Este 0 -- -- 83
2020-03-18 19:00:00 12.9 0 Calma 9 Sur 0 -- -- 77
2020-03-18 18:00:00 15.1 6 Sur 10 Sur 0 -- -- 68
2020-03-18 17:00:00 16.3 5 Sudeste 13 Sudeste 0 -- -- 56
2020-03-18 16:00:00 16.2 7 Sudeste 15 Sur 0 -- -- 57
2020-03-18 15:00:00 15.6 9 Sudeste 17 Sudeste 0 -- -- 59
2020-03-18 14:00:00 14.6 10 Sudeste 17 Sudeste 0 -- -- 63
2020-03-18 13:00:00 13.3 11 Sudeste 18 Este 0 -- -- 66
2020-03-18 12:00:00 12.1 9 Sudeste 14 Este 0 -- -- 70
2020-03-18 11:00:00 10.7 5 Este 16 Sudeste 0 -- -- 79
2020-03-18 10:00:00 9.4 8 Nordeste 13 Nordeste 0 -- -- 89
2020-03-18 09:00:00 6.6 10 Nordeste 14 Nordeste 0 -- -- 94
2020-03-18 08:00:00 5.5 8 Nordeste 13 Nordeste 0 -- -- 95
2020-03-18 07:00:00 5.2 9 Nordeste 13 Nordeste 0 -- -- 95
2020-03-18 06:00:00 5.6 8 Nordeste 12 Nordeste 0 -- -- 96
2020-03-18 05:00:00 5.4 8 Nordeste 14 Nordeste 0 -- -- 94
2020-03-18 04:00:00 5.3 9 Nordeste 14 Nordeste 0 -- -- 93
2020-03-18 03:00:00 5.7 10 Nordeste 14 Este 0 -- -- 96
2020-03-18 02:00:00 5.7 10 Nordeste 13 Este 0 -- -- 97
2020-03-18 01:00:00 5.7 9 Nordeste 13 Este 0 -- -- 96
2020-03-18 00:00:00 6 10 Este 14 Este 0 -- -- 96
2020-03-17 23:00:00 6.1 12 Este 19 Este 0 -- -- 96
2020-03-17 22:00:00 6.3 12 Este 17 Este 0 -- -- 96
2020-03-17 21:00:00 6.5 10 Este 18 Este 0 -- -- 95
2020-03-17 20:00:00 7.2 13 Este 22 Este 0 -- -- 93
2020-03-17 19:00:00 8.9 17 Este 26 Este 0 -- -- 86
2020-03-17 18:00:00 10.4 20 Este 31 Este 0 -- -- 80
2020-03-17 17:00:00 10.4 21 Este 35 Este 0 -- -- 80
2020-03-17 16:00:00 10 19 Este 37 Este 0 -- -- 81
2020-03-17 15:00:00 9.6 26 Este 41 Este 0 -- -- 81
2020-03-17 14:00:00 10.5 30 Este 45 Este 0 -- -- 78
2020-03-17 13:00:00 9.6 25 Este 38 Este 0 -- -- 79
2020-03-17 12:00:00 9.1 25 Este 41 Este 0 -- -- 79
2020-03-17 11:00:00 9.4 27 Este 47 Este 0 -- -- 77
2020-03-17 10:00:00 8.7 29 Este 44 Este 0 -- -- 77
2020-03-17 09:00:00 6.7 24 Este 36 Este 0 -- -- 80
2020-03-17 08:00:00 4.9 19 Este 35 Este 0 -- -- 85
2020-03-17 07:00:00 5.3 23 Este 39 Este 0 -- -- 80
2020-03-17 06:00:00 5.5 26 Este 39 Este 0 -- -- 78
2020-03-17 05:00:00 5 20 Este 37 Este 0 -- -- 79
2020-03-17 04:00:00 4.8 28 Este 47 Este 0 -- -- 78
2020-03-17 03:00:00 4.6 25 Este 36 Este 0 -- -- 77
2020-03-17 02:00:00 4.8 23 Este 36 Este 0 -- -- 76
2020-03-17 01:00:00 4.9 16 Este 30 Este 0 -- -- 71
2020-03-17 00:00:00 5 11 Este 24 Este 0 -- -- 70
2020-03-16 23:00:00 5.3 9 Este 22 Este 0 -- -- 70
2020-03-16 22:00:00 5.5 13 Este 32 Nordeste 0 -- -- 67
2020-03-16 21:00:00 3.9 4 Este 13 Nordeste 0 -- -- 76
2020-03-16 20:00:00 5.5 8 Nordeste 34 Este 0 -- -- 67
2020-03-16 19:00:00 6.8 20 Este 37 Este 0 -- -- 62
2020-03-16 18:00:00 8.2 25 Este 40 Este 0 -- -- 58
2020-03-16 17:00:00 9.2 33 Este 47 Nordeste 0 -- -- 55
2020-03-16 16:00:00 9.2 28 Este 49 Este 0 -- -- 52
2020-03-16 15:00:00 9 8 Nordeste 29 Nordeste 0 -- -- 53
2020-03-16 14:00:00 7.9 17 Nordeste 26 Nordeste 0.6 -- -- 62
2020-03-16 13:00:00 5.7 15 Nordeste 27 Nordeste 2.2 -- -- 65
2020-03-16 12:00:00 4.3 16 Nordeste 32 Nordeste 1.8 -- -- 77
2020-03-16 11:00:00 2.9 18 Nordeste 33 Nordeste 1.6 -- -- 76
2020-03-16 10:00:00 2.1 11 Nordeste 19 Norte 1.2 -- -- 84
2020-03-16 09:00:00 1.3 8 Norte 18 Nordeste 0.4 -- -- 89
2020-03-16 08:00:00 1 3 Norte 15 Norte 0 -- -- 90
2020-03-16 07:00:00 0.7 7 Norte 17 Nordeste 0 -- -- 96
2020-03-16 06:00:00 0.4 0 Calma 12 Este 0 -- -- 98
2020-03-16 05:00:00 0.4 0 Calma 6 Norte 0 -- -- 97
2020-03-16 04:00:00 0.3 4 Norte 14 Norte 0 -- -- 98
2020-03-16 03:00:00 0.4 2 Noroeste 20 Nordeste 0 -- -- 98
2020-03-16 02:00:00 0.5 12 Nordeste 30 Nordeste 0 -- -- 98
2020-03-16 01:00:00 0.4 13 Norte 26 Norte 0 -- -- 97
2020-03-16 00:00:00 0.6 10 Noroeste 35 Noroeste 0 -- -- 95
2020-03-15 23:00:00 5.1 18 Este 29 Este 0 -- -- 72
2020-03-15 22:00:00 4.9 14 Este 27 Sudeste 0 -- -- 81
2020-03-15 21:00:00 6.6 8 Sudeste 26 Oeste 0 -- -- 79
2020-03-15 20:00:00 9 9 Oeste 18 Sudoeste 0 -- -- 63
2020-03-15 19:00:00 12.5 6 Oeste 28 Oeste 0 -- -- 52
2020-03-15 18:00:00 13.1 21 Oeste 54 Oeste 0 -- -- 49
2020-03-15 17:00:00 14.4 21 Oeste 36 Oeste 0 -- -- 46
2020-03-15 16:00:00 14.5 22 Oeste 40 Oeste 0 -- -- 48
2020-03-15 15:00:00 15.4 22 Oeste 35 Oeste 0 -- -- 41
2020-03-15 14:00:00 14.9 17 Oeste 30 Oeste 0 -- -- 40
2020-03-15 13:00:00 13.6 16 Oeste 28 Oeste 0 -- -- 45
2020-03-15 12:00:00 12.8 13 Oeste 22 Sudoeste 0 -- -- 51
2020-03-15 11:00:00 10.8 11 Oeste 20 Oeste 0 -- -- 54
2020-03-15 10:00:00 7.7 3 Sudeste 10 Sudeste 0 -- -- 69
2020-03-15 09:00:00 5.1 4 Este 8 Nordeste 0 -- -- 79
2020-03-15 08:00:00 0.8 0 Calma 7 Nordeste 0 -- -- 89
2020-03-15 07:00:00 0.2 0 Calma -- -- 0 -- -- 90
2020-03-15 06:00:00 0.7 0 Calma -- -- 0 -- -- 89
2020-03-15 05:00:00 0.8 0 Calma -- -- 0 -- -- 89
2020-03-15 04:00:00 1.1 0 Calma -- -- 0 -- -- 88
2020-03-15 03:00:00 1.5 0 Calma -- -- 0 -- -- 87
2020-03-15 02:00:00 1.7 0 Calma -- -- 0 -- -- 85
2020-03-15 01:00:00 2.3 0 Calma -- -- 0 -- -- 84
2020-03-15 00:00:00 2.6 0 Calma -- -- 0 -- -- 81
2020-03-14 23:00:00 3.1 0 Calma -- -- 0 -- -- 81
2020-03-14 22:00:00 4 0 Calma -- -- 0 -- -- 78
2020-03-14 21:00:00 5.2 0 Calma -- -- 0 -- -- 76
2020-03-14 20:00:00 7.8 0 Calma 4 Sur 0 -- -- 69
2020-03-14 19:00:00 12.9 3 Sudeste 6 Sudeste 0 -- -- 55
2020-03-14 18:00:00 14.2 4 Sur 10 Sudeste 0 -- -- 49
2020-03-14 17:00:00 14.3 5 Sudeste 15 Sudeste 0 -- -- 47
2020-03-14 16:00:00 14 8 Sudeste 15 Sudeste 0 -- -- 51
2020-03-14 15:00:00 12.9 7 Sudeste 18 Sudeste 0 -- -- 53
2020-03-14 14:00:00 12.3 9 Sur 18 Sudeste 0 -- -- 60
2020-03-14 13:00:00 11.4 8 Sudeste 15 Sur 0 -- -- 67
2020-03-14 12:00:00 9.9 6 Sudeste 13 Sudeste 0 -- -- 79
2020-03-14 11:00:00 8.7 4 Sudoeste 14 Sudoeste 0 -- -- 82
2020-03-14 10:00:00 5.7 5 Oeste 10 Oeste 0 -- -- 90
2020-03-14 09:00:00 2.4 4 Nordeste 9 Nordeste 0 -- -- 95
2020-03-14 08:00:00 -0.6 6 Nordeste 9 Nordeste 0 -- -- 99
2020-03-14 07:00:00 -1.6 0 Calma -- -- 0 -- -- 96
2020-03-14 06:00:00 -1.2 0 Calma -- -- 0 -- -- 95
2020-03-14 05:00:00 0.2 2 Nordeste 10 Nordeste 0 -- -- 88
2020-03-14 04:00:00 0.3 0 Calma 8 Nordeste 0 -- -- 90
2020-03-14 03:00:00 2 6 Nordeste 8 Nordeste 0 -- -- 91
2020-03-14 02:00:00 2.4 7 Nordeste 10 Nordeste 0 -- -- 90
2020-03-14 01:00:00 2.4 9 Nordeste 11 Nordeste 0 -- -- 91
2020-03-14 00:00:00 2.5 6 Nordeste 15 Nordeste 0 -- -- 91
2020-03-13 23:00:00 2.5 11 Nordeste 14 Nordeste 0 -- -- 93
2020-03-13 22:00:00 3.2 7 Este 9 Este 0 -- -- 90
2020-03-13 21:00:00 4 7 Este 11 Este 0 -- -- 87
2020-03-13 20:00:00 5.9 10 Este 21 Este 0 -- -- 81
2020-03-13 19:00:00 8.2 12 Este 22 Este 0 -- -- 74
2020-03-13 18:00:00 9.4 17 Sudeste 26 Sudeste 0 -- -- 71
2020-03-13 17:00:00 10.7 17 Sudeste 25 Sudeste 0 -- -- 68
2020-03-13 16:00:00 11.1 18 Este 28 Sudeste 0 -- -- 67
2020-03-13 15:00:00 11 16 Este 30 Este 0 -- -- 68
2020-03-13 14:00:00 10.5 18 Este 28 Sudeste 0 -- -- 69
2020-03-13 13:00:00 10 18 Este 30 Este 0 -- -- 70
2020-03-13 12:00:00 9.3 21 Este 35 Este 0 -- -- 72
2020-03-13 11:00:00 8.7 24 Este 38 Este 0 -- -- 75
2020-03-13 10:00:00 6.7 20 Este 33 Este 0 -- -- 83
2020-03-13 09:00:00 5.8 19 Este 35 Este 0 -- -- 84
2020-03-13 08:00:00 5.8 17 Este 33 Este 0 -- -- 83
2020-03-13 07:00:00 5.8 18 Este 35 Este 0 -- -- 85
2020-03-13 06:00:00 5.9 19 Este 30 Este 0 -- -- 87
2020-03-13 05:00:00 5.9 18 Este 32 Este 0 -- -- 88
2020-03-13 04:00:00 5.8 18 Este 29 Este 0 -- -- 90
2020-03-13 03:00:00 5.1 9 Este 27 Este 0 -- -- 93
2020-03-13 02:00:00 5.6 15 Este 24 Este 0 -- -- 90
2020-03-13 01:00:00 5.9 13 Este 26 Este 0 -- -- 90
2020-03-13 00:00:00 6.4 14 Este 23 Este 0 -- -- 88
2020-03-12 23:00:00 6.8 12 Este 18 Este 0 -- -- 86
2020-03-12 22:00:00 7.2 10 Este 25 Sudeste 0 -- -- 85
2020-03-12 21:00:00 7.9 15 Este 28 Este 0 -- -- 84
2020-03-12 20:00:00 8.5 15 Este 30 Este 0 -- -- 86
2020-03-12 19:00:00 9.6 17 Este 33 Este 0 -- -- 87
2020-03-12 18:00:00 12 18 Este 28 Sudeste 0 -- -- 79
2020-03-12 17:00:00 13.9 19 Este 27 Este 0 -- -- 72
2020-03-12 16:00:00 15.7 13 Sudeste 21 Sudeste 0 -- -- 66
2020-03-12 15:00:00 16 12 Sudeste 18 Sudeste 0 -- -- 63
2020-03-12 14:00:00 15.6 12 Sudeste 20 Sudeste 0 -- -- 64
2020-03-12 13:00:00 15.3 10 Sudeste 19 Sudeste 0 -- -- 68
2020-03-12 12:00:00 14 12 Sudeste 16 Sudeste 0 -- -- 70
2020-03-12 11:00:00 13.3 8 Este 13 Este 0 -- -- 72
2020-03-12 10:00:00 11.7 10 Este 14 Este 0 -- -- 77
2020-03-12 09:00:00 9.4 10 Nordeste 13 Nordeste 0 -- -- 85
2020-03-12 08:00:00 8.7 8 Nordeste 10 Nordeste 0 -- -- 80
2020-03-12 07:00:00 7.5 4 Nordeste 5 Nordeste 0 -- -- 88
2020-03-12 06:00:00 7.3 0 Calma 6 Norte 0 -- -- 89
2020-03-12 05:00:00 6.1 4 Norte 6 Norte 0 -- -- 90
2020-03-12 04:00:00 6.7 3 Norte 6 Noroeste 0 -- -- 88
2020-03-12 03:00:00 7 5 Noroeste 8 Noroeste 0 -- -- 86
2020-03-12 02:00:00 7.1 4 Oeste 6 Oeste 0 -- -- 86
2020-03-12 01:00:00 7.6 6 Noroeste 11 Noroeste 0 -- -- 83
2020-03-12 00:00:00 8.6 4 Oeste 10 Oeste 0 -- -- 81
2020-03-11 23:00:00 8.5 7 Noroeste 10 Noroeste 0 -- -- 80
2020-03-11 22:00:00 9.7 0 Calma 5 Nordeste 0 -- -- 76
2020-03-11 21:00:00 11.5 4 Este 6 Sudeste 0 -- -- 69
2020-03-11 20:00:00 12 3 Sur 7 Sudoeste 0 -- -- 68
2020-03-11 19:00:00 15.9 2 Oeste 17 Oeste 0 -- -- 58
2020-03-11 18:00:00 18.6 11 Oeste 19 Oeste 0 -- -- 46
2020-03-11 17:00:00 18.5 13 Oeste 24 Oeste 0 -- -- 47
2020-03-11 16:00:00 17.9 17 Oeste 24 Oeste 0 -- -- 46
2020-03-11 15:00:00 17.5 12 Oeste 22 Oeste 0 -- -- 49
2020-03-11 14:00:00 17 12 Oeste 21 Oeste 0 -- -- 48
2020-03-11 13:00:00 15.5 12 Oeste 22 Oeste 0 -- -- 55
2020-03-11 12:00:00 14.3 6 Oeste 14 Oeste 0 -- -- 58
2020-03-11 11:00:00 11.7 5 Sur 8 Sur 0 -- -- 71
2020-03-11 10:00:00 9.6 5 Sudeste 9 Este 0 -- -- 75
2020-03-11 09:00:00 7.1 7 Nordeste 10 Nordeste 0 -- -- 85
2020-03-11 08:00:00 5 9 Nordeste 12 Nordeste 0 -- -- 83
2020-03-11 07:00:00 4.7 10 Nordeste 12 Nordeste 0 -- -- 83
2020-03-11 06:00:00 4.6 8 Nordeste 12 Nordeste 0 -- -- 77
2020-03-11 05:00:00 3.8 9 Nordeste 12 Nordeste 0 -- -- 76
2020-03-11 04:00:00 3 0 Calma 6 Nordeste 0 -- -- 89
2020-03-11 03:00:00 3.7 0 Calma 10 Noroeste 0 -- -- 90
2020-03-11 02:00:00 3.9 5 Noroeste 9 Noroeste 0 -- -- 90
2020-03-11 01:00:00 5.4 0 Calma 11 Noroeste 0 -- -- 86
2020-03-11 00:00:00 6.7 7 Noroeste 11 Noroeste 0 -- -- 84